createdAt,value
2022-10-17T00:01:05.925Z,9.80
2022-10-17T00:03:36.299Z,9.72
2022-10-17T00:06:11.400Z,9.65
2022-10-17T00:08:43.731Z,9.58
2022-10-17T00:11:21.937Z,9.48
2022-10-17T00:13:53.747Z,9.45
2022-10-17T00:16:33.684Z,9.39
2022-10-17T00:19:01.217Z,9.39
2022-10-17T00:21:29.086Z,9.38
2022-10-17T00:23:56.512Z,9.32
2022-10-17T00:26:24.142Z,9.27
2022-10-17T00:28:53.283Z,9.25
2022-10-17T00:31:23.818Z,9.30
2022-10-17T00:33:52.348Z,9.38
2022-10-17T00:36:25.393Z,9.38
2022-10-17T00:38:58.863Z,9.48
2022-10-17T00:41:33.630Z,9.53
2022-10-17T00:44:05.420Z,9.53
2022-10-17T00:46:39.087Z,9.58
2022-10-17T00:49:12.702Z,9.66
2022-10-17T00:51:47.457Z,9.78
2022-10-17T00:54:19.292Z,9.83
2022-10-17T00:56:48.609Z,9.85
2022-10-17T00:59:20.185Z,9.83
2022-10-17T01:02:11.605Z,9.89
2022-10-17T01:04:43.607Z,9.94
2022-10-17T01:07:11.354Z,9.96
2022-10-17T01:09:41.440Z,10.00
2022-10-17T01:12:32.699Z,10.01
2022-10-17T01:15:15.931Z,9.97
2022-10-17T01:18:04.227Z,9.87
2022-10-17T01:20:58.926Z,9.70
2022-10-17T01:24:06.370Z,9.56
2022-10-17T01:27:23.843Z,9.42
2022-10-17T01:30:34.023Z,9.32
2022-10-17T01:33:17.707Z,9.25
2022-10-17T01:36:01.724Z,9.15
2022-10-17T01:38:44.076Z,9.17
2022-10-17T01:41:45.702Z,9.11
2022-10-17T01:44:23.310Z,9.05
2022-10-17T01:46:58.163Z,9.00
2022-10-17T01:49:31.763Z,8.93
2022-10-17T01:52:09.771Z,8.83
2022-10-17T01:54:50.094Z,8.76
2022-10-17T01:57:44.115Z,8.66
2022-10-17T02:00:18.709Z,8.60
2022-10-17T02:02:59.014Z,8.57
2022-10-17T02:05:47.097Z,8.46
2022-10-17T02:08:26.520Z,8.43
2022-10-17T02:11:00.597Z,8.38
2022-10-17T02:13:57.648Z,8.34
2022-10-17T02:16:50.016Z,8.36
2022-10-17T02:19:34.160Z,8.39
2022-10-17T02:22:14.544Z,8.46
2022-10-17T02:25:18.829Z,8.45
2022-10-17T02:28:16.004Z,8.46
2022-10-17T02:30:54.972Z,8.50
2022-10-17T02:33:33.867Z,8.56
2022-10-17T02:36:11.726Z,8.59
2022-10-17T02:38:41.278Z,8.66
2022-10-17T02:41:16.363Z,8.66
2022-10-17T02:43:47.307Z,8.66
2022-10-17T02:46:21.169Z,8.64
2022-10-17T02:49:01.508Z,8.64
2022-10-17T02:52:03.663Z,8.69
2022-10-17T02:54:34.507Z,8.74
2022-10-17T02:57:12.229Z,8.74
2022-10-17T02:59:41.861Z,8.66
2022-10-17T03:02:09.375Z,8.62
2022-10-17T03:04:37.203Z,8.59
2022-10-17T03:07:04.691Z,8.55
2022-10-17T03:09:32.162Z,8.50
2022-10-17T03:11:59.675Z,8.43
2022-10-17T03:14:27.189Z,8.39
2022-10-17T03:16:54.643Z,8.34
2022-10-17T03:19:22.718Z,8.31
2022-10-17T03:21:52.226Z,8.25
2022-10-17T03:24:19.715Z,8.18
2022-10-17T03:29:19.837Z,8.25
2022-10-17T03:31:47.918Z,8.16
2022-10-17T03:34:17.686Z,8.11
2022-10-17T03:36:46.062Z,8.16
2022-10-17T03:39:14.025Z,8.26
2022-10-17T03:41:42.768Z,8.28
2022-10-17T03:44:11.075Z,8.22
2022-10-17T03:46:38.881Z,8.12
2022-10-17T03:49:07.104Z,8.07
2022-10-17T03:51:35.244Z,8.05
2022-10-17T03:54:07.539Z,7.91
2022-10-17T03:56:35.103Z,7.84
2022-10-17T03:59:06.848Z,7.70
2022-10-17T04:01:36.809Z,7.63
2022-10-17T04:04:04.690Z,7.55
2022-10-17T04:06:36.129Z,7.57
2022-10-17T04:09:05.992Z,7.55
2022-10-17T04:11:53.689Z,7.57
2022-10-17T04:14:22.542Z,7.63
2022-10-17T04:16:53.493Z,7.57
2022-10-17T04:19:22.122Z,7.52
2022-10-17T04:21:50.426Z,7.42
2022-10-17T04:24:19.693Z,7.35
2022-10-17T04:26:54.749Z,7.33
2022-10-17T04:29:25.778Z,7.36
2022-10-17T04:31:57.779Z,7.36
2022-10-17T04:34:37.800Z,7.36
2022-10-17T04:37:05.461Z,7.35
2022-10-17T04:39:34.143Z,7.33
2022-10-17T04:42:01.578Z,7.25
2022-10-17T04:44:30.920Z,7.23
2022-10-17T04:46:59.462Z,7.33
2022-10-17T04:49:27.900Z,7.45
2022-10-17T04:52:00.360Z,7.60
2022-10-17T04:54:40.330Z,7.71
2022-10-17T04:57:10.714Z,7.83
2022-10-17T04:59:40.410Z,7.90
2022-10-17T05:02:26.424Z,7.95
2022-10-17T05:04:54.258Z,7.88
2022-10-17T05:07:22.983Z,7.88
2022-10-17T05:10:11.989Z,7.93
2022-10-17T05:12:42.184Z,7.97
2022-10-17T05:15:10.135Z,8.11
2022-10-17T05:17:37.583Z,8.25
2022-10-17T05:20:07.063Z,8.42
2022-10-17T05:22:38.371Z,8.57
2022-10-17T05:25:09.292Z,8.83
2022-10-17T05:27:38.126Z,9.08
2022-10-17T05:30:07.000Z,9.43
2022-10-17T05:32:36.613Z,9.79
2022-10-17T05:35:05.020Z,10.14
2022-10-17T05:37:33.407Z,10.40
2022-10-17T05:40:02.787Z,10.72
2022-10-17T05:42:31.894Z,11.07
2022-10-17T05:44:59.639Z,11.35
2022-10-17T05:47:27.950Z,11.37
2022-10-17T05:49:55.782Z,11.75
2022-10-17T05:52:37.386Z,12.03
2022-10-17T05:55:12.100Z,12.30
2022-10-17T05:57:40.681Z,12.64
2022-10-17T06:00:14.064Z,12.73
2022-10-17T06:02:50.595Z,12.84
2022-10-17T06:05:20.613Z,13.85
2022-10-17T06:07:52.656Z,14.69
2022-10-17T06:10:22.146Z,15.48
2022-10-17T06:12:49.796Z,15.38
2022-10-17T06:15:17.435Z,16.28
2022-10-17T06:17:49.617Z,17.09
2022-10-17T06:20:17.165Z,18.87
2022-10-17T06:22:45.046Z,20.72
2022-10-17T06:25:22.516Z,21.82
2022-10-17T06:27:50.244Z,22.81
2022-10-17T06:30:17.858Z,23.20
2022-10-17T06:32:46.146Z,23.58
2022-10-17T06:35:13.769Z,24.40
2022-10-17T06:37:42.487Z,24.15
2022-10-17T06:40:12.243Z,24.53
2022-10-17T06:42:41.163Z,25.85
2022-10-17T06:45:28.811Z,26.76
2022-10-17T06:48:16.501Z,28.40
2022-10-17T06:50:50.697Z,29.50
2022-10-17T06:53:25.017Z,29.98
2022-10-17T06:55:58.171Z,30.63
2022-10-17T06:58:41.608Z,31.01
2022-10-17T07:01:22.623Z,29.42
2022-10-17T07:03:54.743Z,28.75
2022-10-17T07:06:24.687Z,28.33
2022-10-17T07:08:53.065Z,29.94
2022-10-17T07:11:22.891Z,29.29
2022-10-17T07:13:52.691Z,28.81
2022-10-17T07:16:22.374Z,27.75
2022-10-17T07:18:57.919Z,28.04
2022-10-17T07:21:25.652Z,25.79
2022-10-17T07:23:53.231Z,27.88
2022-10-17T07:26:22.039Z,28.42
2022-10-17T07:28:55.316Z,30.25
2022-10-17T07:31:33.202Z,29.77
2022-10-17T07:34:01.107Z,28.26
2022-10-17T07:36:29.527Z,25.83
2022-10-17T07:38:58.398Z,25.96
2022-10-17T07:41:27.107Z,27.16
2022-10-17T07:43:55.715Z,28.31
2022-10-17T07:46:28.683Z,28.68
2022-10-17T07:48:56.295Z,28.42
2022-10-17T07:51:23.931Z,27.36
2022-10-17T07:53:51.351Z,25.94
2022-10-17T07:56:18.857Z,27.58
2022-10-17T07:58:48.234Z,28.10
2022-10-17T08:01:16.298Z,28.47
2022-10-17T08:03:45.602Z,28.57
2022-10-17T08:06:14.179Z,29.19
2022-10-17T08:08:42.046Z,30.90
2022-10-17T08:11:13.300Z,31.54
2022-10-17T08:13:42.174Z,32.03
2022-10-17T08:16:12.582Z,32.01
2022-10-17T08:18:42.444Z,31.14
2022-10-17T08:21:11.349Z,30.97
2022-10-17T08:23:39.070Z,33.01
2022-10-17T08:26:10.566Z,33.70
2022-10-17T08:28:40.386Z,33.66
2022-10-17T08:31:18.160Z,32.09
2022-10-17T08:33:47.868Z,32.05
2022-10-17T08:36:20.026Z,31.42
2022-10-17T08:38:51.784Z,32.67
2022-10-17T08:41:46.884Z,32.98
2022-10-17T08:44:47.787Z,31.49
2022-10-17T08:47:28.244Z,30.96
2022-10-17T08:50:03.772Z,30.51
2022-10-17T08:52:47.002Z,30.68
2022-10-17T08:55:28.595Z,30.72
2022-10-17T08:57:56.180Z,31.34
2022-10-17T09:00:24.446Z,31.04
2022-10-17T09:03:29.845Z,30.51
2022-10-17T09:06:33.583Z,29.94
2022-10-17T09:09:42.624Z,29.73
2022-10-17T09:12:25.536Z,29.83
2022-10-17T09:15:08.859Z,33.07
2022-10-17T09:17:58.168Z,32.40
2022-10-17T09:20:58.188Z,33.08
2022-10-17T09:23:44.123Z,32.26
2022-10-17T09:26:12.613Z,31.14
2022-10-17T09:28:42.949Z,33.86
2022-10-17T09:31:40.905Z,31.90
2022-10-17T09:34:11.086Z,31.64
2022-10-17T09:36:40.681Z,32.49
2022-10-17T09:39:18.612Z,31.71
2022-10-17T09:41:56.979Z,29.73
2022-10-17T09:45:01.001Z,30.62
2022-10-17T09:47:43.563Z,30.20
2022-10-17T09:50:30.566Z,33.11
2022-10-17T09:53:12.360Z,33.02
2022-10-17T09:55:45.271Z,35.25
2022-10-17T09:58:12.778Z,36.62
2022-10-17T10:00:44.120Z,35.74
2022-10-17T10:03:27.339Z,34.05
2022-10-17T10:06:16.264Z,34.89
2022-10-17T10:09:04.940Z,34.61
2022-10-17T10:11:46.712Z,36.25
2022-10-17T10:14:29.475Z,35.40
2022-10-17T10:16:57.000Z,33.01
2022-10-17T10:19:38.496Z,33.94
2022-10-17T10:22:18.272Z,34.72
2022-10-17T10:24:46.246Z,32.99
2022-10-17T10:27:17.923Z,33.56
2022-10-17T10:29:53.275Z,32.68
2022-10-17T10:32:27.216Z,31.85
2022-10-17T10:35:03.722Z,32.53
2022-10-17T10:37:45.564Z,34.71
2022-10-17T10:40:22.752Z,34.73
2022-10-17T10:42:55.156Z,34.11
2022-10-17T10:45:47.370Z,32.40
2022-10-17T10:48:27.624Z,31.82
2022-10-17T10:51:05.967Z,32.10
2022-10-17T10:54:20.320Z,32.85
2022-10-17T10:56:53.722Z,32.06
2022-10-17T10:59:26.194Z,31.75
2022-10-17T11:02:11.572Z,30.92
2022-10-17T11:05:11.157Z,31.74
2022-10-17T11:07:50.121Z,31.55
2022-10-17T11:10:30.765Z,30.86
2022-10-17T11:13:17.789Z,30.03
2022-10-17T11:16:17.481Z,29.60
2022-10-17T11:18:53.110Z,29.52
2022-10-17T11:21:48.513Z,29.56
2022-10-17T11:24:42.451Z,29.33
2022-10-17T11:27:10.081Z,28.92
2022-10-17T11:29:41.306Z,29.14
2022-10-17T11:32:31.557Z,28.80
2022-10-17T11:35:24.344Z,30.65
2022-10-17T11:38:17.466Z,31.52
2022-10-17T11:40:50.713Z,31.64
2022-10-17T11:43:53.582Z,30.21
2022-10-17T11:46:25.608Z,28.67
2022-10-17T11:48:58.731Z,27.78
2022-10-17T11:54:28.334Z,27.43
2022-10-17T11:57:27.062Z,27.43
2022-10-17T11:59:54.626Z,27.27
2022-10-17T12:03:14.614Z,25.66
2022-10-17T12:05:50.830Z,24.33
2022-10-17T12:08:37.803Z,23.98
2022-10-17T12:11:56.175Z,23.88
2022-10-17T12:14:41.097Z,23.66
2022-10-17T12:17:34.915Z,23.43
2022-10-17T12:20:37.931Z,23.05
2022-10-17T12:23:11.422Z,22.94
2022-10-17T12:25:52.672Z,23.13
2022-10-17T12:28:39.385Z,23.24
2022-10-17T12:31:32.470Z,22.99
2022-10-17T12:34:05.530Z,22.78
2022-10-17T12:36:33.126Z,22.84
2022-10-17T12:39:03.448Z,22.75
2022-10-17T12:41:39.778Z,22.85
2022-10-17T12:44:13.463Z,22.71
2022-10-17T12:46:59.652Z,22.81
2022-10-17T12:49:46.309Z,22.73
2022-10-17T12:52:35.100Z,22.69
2022-10-17T12:55:13.205Z,22.68
2022-10-17T12:58:14.739Z,22.50
2022-10-17T13:01:24.075Z,22.60
2022-10-17T13:03:53.284Z,22.44
2022-10-17T13:06:29.374Z,22.41
2022-10-17T13:09:15.699Z,22.40
2022-10-17T13:11:43.692Z,22.34
2022-10-17T13:14:14.728Z,22.30
2022-10-17T13:17:07.334Z,22.31
2022-10-17T13:19:46.430Z,22.30
2022-10-17T13:22:33.223Z,22.37
2022-10-17T13:25:17.563Z,22.40
2022-10-17T13:27:46.852Z,22.17
2022-10-17T13:30:33.961Z,22.18
2022-10-17T13:33:02.975Z,22.16
2022-10-17T13:35:55.733Z,22.10
2022-10-17T13:38:33.510Z,21.99
2022-10-17T13:41:30.091Z,21.95
2022-10-17T13:43:52.044Z,21.89
2022-10-17T13:46:39.495Z,21.85
2022-10-17T13:49:40.548Z,21.81
2022-10-17T13:52:19.543Z,21.82
2022-10-17T13:54:53.937Z,21.76
2022-10-17T13:57:27.565Z,21.69
2022-10-17T13:59:59.847Z,21.65
2022-10-17T14:02:32.407Z,21.58
2022-10-17T14:05:17.306Z,21.55
2022-10-17T14:08:10.666Z,21.52
2022-10-17T14:10:42.244Z,21.49
2022-10-17T14:13:25.305Z,21.47
2022-10-17T14:16:00.861Z,21.42
2022-10-17T14:18:36.670Z,21.37
2022-10-17T14:24:21.923Z,21.24
2022-10-17T14:27:00.543Z,21.24
2022-10-17T14:29:51.310Z,21.21
2022-10-17T14:32:20.992Z,21.15
2022-10-17T14:35:00.723Z,21.06
2022-10-17T14:37:47.730Z,21.03
2022-10-17T14:40:24.983Z,20.96
2022-10-17T14:42:56.181Z,20.90
2022-10-17T14:45:35.023Z,20.84
2022-10-17T14:48:15.132Z,20.84
2022-10-17T14:51:09.910Z,20.76
2022-10-17T14:53:39.532Z,20.69
2022-10-17T14:56:34.578Z,20.57
2022-10-17T14:59:03.014Z,20.49
2022-10-17T15:01:30.423Z,20.42
2022-10-17T15:03:57.888Z,20.42
2022-10-17T15:06:34.084Z,20.35
2022-10-17T15:09:01.639Z,20.26
2022-10-17T15:11:29.123Z,20.12
2022-10-17T15:13:57.410Z,20.00
2022-10-17T15:16:30.453Z,19.84
2022-10-17T15:18:57.978Z,19.69
2022-10-17T15:21:39.287Z,19.56
2022-10-17T15:24:09.509Z,19.49
2022-10-17T15:26:37.389Z,19.39
2022-10-17T15:29:05.324Z,19.23
2022-10-17T15:31:33.254Z,18.99
2022-10-17T15:34:00.611Z,18.74
2022-10-17T15:36:40.403Z,18.46
2022-10-17T15:39:10.046Z,18.23
2022-10-17T15:41:37.689Z,18.09
2022-10-17T15:44:05.486Z,17.98
2022-10-17T15:46:35.557Z,17.88
2022-10-17T15:49:11.991Z,17.72
2022-10-17T15:51:39.631Z,17.64
2022-10-17T15:54:07.347Z,17.51
2022-10-17T15:56:42.149Z,17.41
2022-10-17T15:59:18.527Z,17.23
2022-10-17T16:01:46.459Z,17.13
2022-10-17T16:04:15.632Z,17.02
2022-10-17T16:06:43.619Z,17.00
2022-10-17T16:09:11.389Z,17.22
2022-10-17T16:11:44.151Z,17.23
2022-10-17T16:14:15.953Z,16.97
2022-10-17T16:16:43.739Z,16.75
2022-10-17T16:19:11.523Z,16.52
2022-10-17T16:21:41.759Z,16.38
2022-10-17T16:24:12.767Z,16.22
2022-10-17T16:26:40.871Z,16.14
2022-10-17T16:29:10.013Z,16.04
2022-10-17T16:31:43.711Z,15.89
2022-10-17T16:34:14.798Z,15.82
2022-10-17T16:36:42.981Z,15.70
2022-10-17T16:39:10.323Z,15.69
2022-10-17T16:41:39.778Z,15.61
2022-10-17T16:44:13.911Z,15.56
2022-10-17T16:46:41.471Z,15.51
2022-10-17T16:49:10.289Z,15.41
2022-10-17T16:51:37.831Z,15.28
2022-10-17T16:54:05.328Z,15.17
2022-10-17T16:56:33.052Z,15.07
2022-10-17T16:59:01.807Z,14.96
2022-10-17T17:01:30.563Z,14.81
2022-10-17T17:03:58.852Z,14.69
2022-10-17T17:06:28.552Z,14.60
2022-10-17T17:08:57.331Z,14.57
2022-10-17T17:11:28.107Z,14.53
2022-10-17T17:13:57.952Z,14.55
2022-10-17T17:16:27.436Z,14.50
2022-10-17T17:19:05.468Z,14.45
2022-10-17T17:21:34.169Z,14.36
2022-10-17T17:24:03.784Z,14.29
2022-10-17T17:26:37.442Z,14.09
2022-10-17T17:29:05.497Z,13.85
2022-10-17T17:31:35.187Z,13.67
2022-10-17T17:34:03.428Z,13.49
2022-10-17T17:36:37.354Z,13.39
2022-10-17T17:39:08.647Z,13.33
2022-10-17T17:41:36.843Z,13.49
2022-10-17T17:44:05.304Z,13.43
2022-10-17T17:46:33.360Z,13.50
2022-10-17T17:49:01.077Z,13.59
2022-10-17T17:51:29.357Z,13.66
2022-10-17T17:53:57.913Z,13.82
2022-10-17T17:56:27.815Z,13.85
2022-10-17T17:59:03.375Z,13.92
2022-10-17T18:01:37.756Z,13.98
2022-10-17T18:04:08.793Z,14.01
2022-10-17T18:06:38.318Z,13.97
2022-10-17T18:09:07.247Z,13.95
2022-10-17T18:11:36.385Z,13.87
2022-10-17T18:14:08.558Z,13.66
2022-10-17T18:16:37.659Z,13.49
2022-10-17T18:19:09.063Z,13.18
2022-10-17T18:21:37.223Z,12.87
2022-10-17T18:24:05.886Z,12.61
2022-10-17T18:26:34.212Z,12.37
2022-10-17T18:29:01.621Z,12.22
2022-10-17T18:31:32.073Z,12.03
2022-10-17T18:34:02.773Z,12.02
2022-10-17T18:36:32.723Z,12.05
2022-10-17T18:39:01.638Z,12.15
2022-10-17T18:41:29.246Z,12.19
2022-10-17T18:43:57.948Z,12.15
2022-10-17T18:46:36.233Z,12.17
2022-10-17T18:49:03.792Z,12.25
2022-10-17T18:51:31.737Z,12.32
2022-10-17T18:53:59.188Z,12.37
2022-10-17T18:56:27.097Z,12.32
2022-10-17T18:58:55.855Z,12.37
2022-10-17T19:01:27.064Z,12.38
2022-10-17T19:03:58.207Z,12.46
2022-10-17T19:06:31.824Z,12.51
2022-10-17T19:09:02.185Z,12.41
2022-10-17T19:11:32.159Z,12.46
2022-10-17T19:14:02.567Z,12.43
2022-10-17T19:16:36.462Z,12.40
2022-10-17T19:19:23.339Z,12.40
2022-10-17T19:21:52.007Z,12.36
2022-10-17T19:24:23.954Z,12.34
2022-10-17T19:26:54.836Z,12.29
2022-10-17T19:29:27.498Z,12.27
2022-10-17T19:34:23.592Z,12.06
2022-10-17T19:36:51.783Z,12.05
2022-10-17T19:39:22.892Z,12.03
2022-10-17T19:41:50.513Z,12.02
2022-10-17T19:44:18.258Z,11.95
2022-10-17T19:46:46.914Z,11.85
2022-10-17T19:49:16.702Z,11.74
2022-10-17T19:51:44.825Z,11.54
2022-10-17T19:54:12.656Z,11.38
2022-10-17T19:56:43.076Z,11.24
2022-10-17T19:59:14.302Z,11.09
2022-10-17T20:01:42.705Z,11.00
2022-10-17T20:04:12.114Z,10.92
2022-10-17T20:06:41.204Z,10.82
2022-10-17T20:09:13.879Z,10.71
2022-10-17T20:11:44.596Z,10.66
2022-10-17T20:14:12.183Z,10.65
2022-10-17T20:16:39.692Z,10.52
2022-10-17T20:19:12.764Z,10.46
2022-10-17T20:21:40.369Z,10.37
2022-10-17T20:24:13.262Z,10.33
2022-10-17T20:26:40.890Z,10.37
2022-10-17T20:29:21.626Z,10.31
2022-10-17T20:31:49.687Z,10.14
2022-10-17T20:34:19.385Z,10.00
2022-10-17T20:36:47.757Z,9.96
2022-10-17T20:39:16.877Z,9.96
2022-10-17T20:41:45.440Z,9.97
2022-10-17T20:44:13.049Z,9.97
2022-10-17T20:46:45.305Z,9.96
2022-10-17T20:49:21.415Z,10.00
2022-10-17T20:51:48.958Z,10.11
2022-10-17T20:54:16.424Z,10.16
2022-10-17T20:56:44.040Z,10.06
2022-10-17T20:59:16.085Z,10.04
2022-10-17T21:01:45.257Z,9.97
2022-10-17T21:07:02.004Z,9.66
2022-10-17T21:09:29.649Z,9.62
2022-10-17T21:11:57.485Z,9.56
2022-10-17T21:14:25.379Z,9.46
2022-10-17T21:16:53.033Z,9.42
2022-10-17T21:19:21.801Z,9.32
2022-10-17T21:21:50.056Z,9.24
2022-10-17T21:24:20.412Z,9.17
2022-10-17T21:26:55.069Z,9.14
2022-10-17T21:29:24.015Z,9.14
2022-10-17T21:31:52.277Z,9.14
2022-10-17T21:34:24.462Z,9.10
2022-10-17T21:36:52.966Z,9.05
2022-10-17T21:39:20.395Z,9.11
2022-10-17T21:41:47.812Z,9.04
2022-10-17T21:44:18.415Z,8.96
2022-10-17T21:46:47.270Z,8.81
2022-10-17T21:49:19.373Z,8.67
2022-10-17T21:51:47.694Z,8.70
2022-10-17T21:54:17.946Z,8.70
2022-10-17T21:56:45.834Z,8.70
2022-10-17T21:59:13.272Z,8.76
2022-10-17T22:01:44.171Z,8.70
2022-10-17T22:04:16.946Z,8.76
2022-10-17T22:06:47.598Z,8.79
2022-10-17T22:09:25.525Z,8.83
2022-10-17T22:11:56.634Z,8.99
2022-10-17T22:14:26.916Z,9.11
2022-10-17T22:16:55.496Z,9.18
2022-10-17T22:19:25.740Z,9.21
2022-10-17T22:21:54.542Z,9.22
2022-10-17T22:24:23.265Z,9.14
2022-10-17T22:26:51.501Z,9.08
2022-10-17T22:29:19.352Z,8.96
2022-10-17T22:31:47.142Z,8.72
2022-10-17T22:34:17.074Z,8.49
2022-10-17T22:36:45.208Z,8.31
2022-10-17T22:39:12.728Z,8.14
2022-10-17T22:41:40.168Z,8.01
2022-10-17T22:44:07.965Z,7.84
2022-10-17T22:46:35.984Z,7.71
2022-10-17T22:49:04.116Z,7.65
2022-10-17T22:51:31.850Z,7.55
2022-10-17T22:53:59.300Z,7.45
2022-10-17T22:56:26.953Z,7.40
2022-10-17T22:58:54.457Z,7.36
2022-10-17T23:01:25.173Z,7.29
2022-10-17T23:03:53.654Z,7.12
2022-10-17T23:06:21.394Z,7.09
2022-10-17T23:08:48.858Z,7.14
2022-10-17T23:11:16.926Z,7.14
2022-10-17T23:13:44.643Z,7.15
2022-10-17T23:16:12.167Z,7.12
2022-10-17T23:18:40.155Z,7.19
2022-10-17T23:21:08.547Z,7.20
2022-10-17T23:23:36.450Z,7.25
2022-10-17T23:26:14.403Z,7.36
2022-10-17T23:28:43.097Z,7.36
2022-10-17T23:31:19.792Z,7.43
2022-10-17T23:33:49.708Z,7.49
2022-10-17T23:36:20.312Z,7.57
2022-10-17T23:38:48.725Z,7.45
2022-10-17T23:41:16.825Z,7.38
2022-10-17T23:43:44.815Z,7.32
2022-10-17T23:46:13.187Z,7.30
2022-10-17T23:48:41.390Z,7.28
2022-10-17T23:51:10.581Z,7.29
2022-10-17T23:53:39.418Z,7.28
2022-10-17T23:56:08.694Z,7.19
2022-10-17T23:58:36.744Z,7.19
